sensor_id;sensor_type;location;lat;lon;timestamp;temperature;humidity
20349;DHT22;10332;50.208;18.988;2022-12-08T00:01:30;3.20;99.90
20349;DHT22;10332;50.208;18.988;2022-12-08T00:04:01;3.10;99.90
20349;DHT22;10332;50.208;18.988;2022-12-08T00:06:32;3.10;99.90
20349;DHT22;10332;50.208;18.988;2022-12-08T00:12:02;3.00;99.90
20349;DHT22;10332;50.208;18.988;2022-12-08T00:14:40;3.00;99.90
20349;DHT22;10332;50.208;18.988;2022-12-08T00:17:10;3.00;99.90
20349;DHT22;10332;50.208;18.988;2022-12-08T00:19:40;3.10;99.90
20349;DHT22;10332;50.208;18.988;2022-12-08T00:22:10;3.00;99.90
20349;DHT22;10332;50.208;18.988;2022-12-08T00:24:39;3.10;99.90
20349;DHT22;10332;50.208;18.988;2022-12-08T00:27:11;3.10;99.90
20349;DHT22;10332;50.208;18.988;2022-12-08T00:29:42;3.10;99.90
20349;DHT22;10332;50.208;18.988;2022-12-08T00:32:10;3.00;99.90
20349;DHT22;10332;50.208;18.988;2022-12-08T00:34:38;3.10;99.90
20349;DHT22;10332;50.208;18.988;2022-12-08T00:37:06;3.00;99.90
20349;DHT22;10332;50.208;18.988;2022-12-08T00:39:33;3.10;99.90
20349;DHT22;10332;50.208;18.988;2022-12-08T00:42:01;3.10;99.90
20349;DHT22;10332;50.208;18.988;2022-12-08T00:44:42;3.10;99.90
20349;DHT22;10332;50.208;18.988;2022-12-08T00:47:11;3.10;99.90
20349;DHT22;10332;50.208;18.988;2022-12-08T00:49:40;3.20;99.90
20349;DHT22;10332;50.208;18.988;2022-12-08T00:52:08;3.10;99.90
20349;DHT22;10332;50.208;18.988;2022-12-08T00:54:36;3.10;99.90
20349;DHT22;10332;50.208;18.988;2022-12-08T00:57:03;3.10;99.90
20349;DHT22;10332;50.208;18.988;2022-12-08T00:59:31;3.10;99.90
20349;DHT22;10332;50.208;18.988;2022-12-08T01:01:58;3.10;99.90
20349;DHT22;10332;50.208;18.988;2022-12-08T01:04:26;3.10;99.90
20349;DHT22;10332;50.208;18.988;2022-12-08T01:06:53;3.10;99.90
20349;DHT22;10332;50.208;18.988;2022-12-08T01:09:21;3.10;99.90
20349;DHT22;10332;50.208;18.988;2022-12-08T01:11:48;3.20;99.90
20349;DHT22;10332;50.208;18.988;2022-12-08T01:14:16;3.10;99.90
20349;DHT22;10332;50.208;18.988;2022-12-08T01:16:44;3.20;99.90
20349;DHT22;10332;50.208;18.988;2022-12-08T01:19:13;3.10;99.90
20349;DHT22;10332;50.208;18.988;2022-12-08T01:21:42;3.10;99.90
20349;DHT22;10332;50.208;18.988;2022-12-08T01:24:16;3.20;99.90
20349;DHT22;10332;50.208;18.988;2022-12-08T01:26:45;3.20;99.90
20349;DHT22;10332;50.208;18.988;2022-12-08T01:29:14;3.20;99.90
20349;DHT22;10332;50.208;18.988;2022-12-08T01:31:42;3.20;99.90
20349;DHT22;10332;50.208;18.988;2022-12-08T01:34:10;3.20;99.90
20349;DHT22;10332;50.208;18.988;2022-12-08T01:36:38;3.20;99.90
20349;DHT22;10332;50.208;18.988;2022-12-08T01:39:12;3.30;99.90
20349;DHT22;10332;50.208;18.988;2022-12-08T01:41:42;3.20;99.90
20349;DHT22;10332;50.208;18.988;2022-12-08T01:46:40;3.20;99.90
20349;DHT22;10332;50.208;18.988;2022-12-08T01:51:54;3.10;99.90
20349;DHT22;10332;50.208;18.988;2022-12-08T01:54:39;3.10;99.90
20349;DHT22;10332;50.208;18.988;2022-12-08T01:57:52;3.10;99.90
20349;DHT22;10332;50.208;18.988;2022-12-08T02:00:25;3.10;99.90
20349;DHT22;10332;50.208;18.988;2022-12-08T02:03:04;3.10;99.90
20349;DHT22;10332;50.208;18.988;2022-12-08T02:05:37;3.10;99.90
20349;DHT22;10332;50.208;18.988;2022-12-08T02:08:07;3.10;99.90
20349;DHT22;10332;50.208;18.988;2022-12-08T02:10:39;3.20;99.90
20349;DHT22;10332;50.208;18.988;2022-12-08T02:13:11;3.20;99.90
20349;DHT22;10332;50.208;18.988;2022-12-08T02:15:47;3.10;99.90
20349;DHT22;10332;50.208;18.988;2022-12-08T02:21:56;3.10;99.90
20349;DHT22;10332;50.208;18.988;2022-12-08T02:24:38;3.10;99.90
20349;DHT22;10332;50.208;18.988;2022-12-08T02:36:06;3.00;99.90
20349;DHT22;10332;50.208;18.988;2022-12-08T02:38:59;3.00;99.90
20349;DHT22;10332;50.208;18.988;2022-12-08T02:47:13;2.90;99.90
20349;DHT22;10332;50.208;18.988;2022-12-08T02:49:44;2.90;99.90
20349;DHT22;10332;50.208;18.988;2022-12-08T02:54:42;2.90;99.90
20349;DHT22;10332;50.208;18.988;2022-12-08T03:00:13;2.80;99.90
20349;DHT22;10332;50.208;18.988;2022-12-08T03:08:50;2.90;99.90
20349;DHT22;10332;50.208;18.988;2022-12-08T03:14:33;2.90;99.90
20349;DHT22;10332;50.208;18.988;2022-12-08T03:17:03;2.90;99.90
20349;DHT22;10332;50.208;18.988;2022-12-08T03:19:36;2.90;99.90
20349;DHT22;10332;50.208;18.988;2022-12-08T03:22:08;2.90;99.90
20349;DHT22;10332;50.208;18.988;2022-12-08T03:24:41;2.80;99.90
20349;DHT22;10332;50.208;18.988;2022-12-08T03:27:16;2.80;99.90
20349;DHT22;10332;50.208;18.988;2022-12-08T03:29:49;2.80;99.90
20349;DHT22;10332;50.208;18.988;2022-12-08T03:32:42;2.80;99.90
20349;DHT22;10332;50.208;18.988;2022-12-08T03:35:20;2.80;99.90
20349;DHT22;10332;50.208;18.988;2022-12-08T03:37:50;2.80;99.90
20349;DHT22;10332;50.208;18.988;2022-12-08T03:40:19;2.90;99.90
20349;DHT22;10332;50.208;18.988;2022-12-08T03:42:46;2.90;99.90
20349;DHT22;10332;50.208;18.988;2022-12-08T03:45:14;2.90;99.90
20349;DHT22;10332;50.208;18.988;2022-12-08T03:47:41;2.90;99.90
20349;DHT22;10332;50.208;18.988;2022-12-08T03:50:10;2.90;99.90
20349;DHT22;10332;50.208;18.988;2022-12-08T03:52:37;2.90;99.90
20349;DHT22;10332;50.208;18.988;2022-12-08T03:55:05;2.90;99.90
20349;DHT22;10332;50.208;18.988;2022-12-08T03:57:33;2.80;99.90
20349;DHT22;10332;50.208;18.988;2022-12-08T04:00:02;2.90;99.90
20349;DHT22;10332;50.208;18.988;2022-12-08T04:02:31;2.90;99.90
20349;DHT22;10332;50.208;18.988;2022-12-08T04:04:58;2.90;99.90
20349;DHT22;10332;50.208;18.988;2022-12-08T04:07:26;2.90;99.90
20349;DHT22;10332;50.208;18.988;2022-12-08T04:09:53;2.90;99.90
20349;DHT22;10332;50.208;18.988;2022-12-08T04:12:21;2.90;99.90
20349;DHT22;10332;50.208;18.988;2022-12-08T04:14:48;2.90;99.90
20349;DHT22;10332;50.208;18.988;2022-12-08T04:17:15;2.90;99.90
20349;DHT22;10332;50.208;18.988;2022-12-08T04:19:43;2.90;99.90
20349;DHT22;10332;50.208;18.988;2022-12-08T04:22:10;2.90;99.90
20349;DHT22;10332;50.208;18.988;2022-12-08T04:24:37;2.90;99.90
20349;DHT22;10332;50.208;18.988;2022-12-08T04:27:05;2.90;99.90
20349;DHT22;10332;50.208;18.988;2022-12-08T04:29:32;2.90;99.90
20349;DHT22;10332;50.208;18.988;2022-12-08T04:32:00;2.90;99.90
20349;DHT22;10332;50.208;18.988;2022-12-08T04:34:27;3.00;99.90
20349;DHT22;10332;50.208;18.988;2022-12-08T04:36:54;3.00;99.90
20349;DHT22;10332;50.208;18.988;2022-12-08T04:39:22;2.90;99.90
20349;DHT22;10332;50.208;18.988;2022-12-08T04:41:49;2.90;99.90
20349;DHT22;10332;50.208;18.988;2022-12-08T04:44:16;2.90;99.90
20349;DHT22;10332;50.208;18.988;2022-12-08T04:46:44;2.90;99.90
20349;DHT22;10332;50.208;18.988;2022-12-08T04:49:11;2.90;99.90
20349;DHT22;10332;50.208;18.988;2022-12-08T04:51:39;2.90;99.90
20349;DHT22;10332;50.208;18.988;2022-12-08T04:54:06;2.80;99.90
20349;DHT22;10332;50.208;18.988;2022-12-08T04:56:34;2.80;99.90
20349;DHT22;10332;50.208;18.988;2022-12-08T04:59:02;2.80;99.90
20349;DHT22;10332;50.208;18.988;2022-12-08T05:01:29;2.80;99.90
20349;DHT22;10332;50.208;18.988;2022-12-08T05:03:56;2.80;99.90
20349;DHT22;10332;50.208;18.988;2022-12-08T05:06:24;2.70;99.90
20349;DHT22;10332;50.208;18.988;2022-12-08T05:08:51;2.80;99.90
20349;DHT22;10332;50.208;18.988;2022-12-08T05:11:19;2.80;99.90
20349;DHT22;10332;50.208;18.988;2022-12-08T05:13:46;2.80;99.90
20349;DHT22;10332;50.208;18.988;2022-12-08T05:16:14;2.80;99.90
20349;DHT22;10332;50.208;18.988;2022-12-08T05:18:42;2.90;99.90
20349;DHT22;10332;50.208;18.988;2022-12-08T05:21:10;2.90;99.90
20349;DHT22;10332;50.208;18.988;2022-12-08T05:23:38;2.80;99.90
20349;DHT22;10332;50.208;18.988;2022-12-08T05:26:05;2.80;99.90
20349;DHT22;10332;50.208;18.988;2022-12-08T05:28:33;2.80;99.90
20349;DHT22;10332;50.208;18.988;2022-12-08T05:31:11;2.80;99.90
20349;DHT22;10332;50.208;18.988;2022-12-08T05:33:41;2.90;99.90
20349;DHT22;10332;50.208;18.988;2022-12-08T05:36:11;2.90;99.90
20349;DHT22;10332;50.208;18.988;2022-12-08T05:38:40;2.80;99.90
20349;DHT22;10332;50.208;18.988;2022-12-08T05:41:13;2.80;99.90
20349;DHT22;10332;50.208;18.988;2022-12-08T05:43:46;2.80;99.90
20349;DHT22;10332;50.208;18.988;2022-12-08T05:46:15;2.70;99.90
20349;DHT22;10332;50.208;18.988;2022-12-08T05:48:43;2.70;99.90
20349;DHT22;10332;50.208;18.988;2022-12-08T05:51:17;2.70;99.90
20349;DHT22;10332;50.208;18.988;2022-12-08T05:53:47;2.70;99.90
20349;DHT22;10332;50.208;18.988;2022-12-08T05:56:16;2.70;99.90
20349;DHT22;10332;50.208;18.988;2022-12-08T05:58:44;2.70;99.90
20349;DHT22;10332;50.208;18.988;2022-12-08T06:04:00;2.60;99.90
20349;DHT22;10332;50.208;18.988;2022-12-08T06:06:34;2.60;99.90
20349;DHT22;10332;50.208;18.988;2022-12-08T06:09:03;2.60;99.90
20349;DHT22;10332;50.208;18.988;2022-12-08T06:11:32;2.50;99.90
20349;DHT22;10332;50.208;18.988;2022-12-08T06:14:00;2.50;99.90
20349;DHT22;10332;50.208;18.988;2022-12-08T06:16:29;2.60;99.90
20349;DHT22;10332;50.208;18.988;2022-12-08T06:18:57;2.50;99.90
20349;DHT22;10332;50.208;18.988;2022-12-08T06:21:24;2.50;99.90
20349;DHT22;10332;50.208;18.988;2022-12-08T06:23:53;2.40;99.90
20349;DHT22;10332;50.208;18.988;2022-12-08T06:26:21;2.40;99.90
20349;DHT22;10332;50.208;18.988;2022-12-08T06:28:49;2.50;99.90
20349;DHT22;10332;50.208;18.988;2022-12-08T06:31:20;2.50;99.90
20349;DHT22;10332;50.208;18.988;2022-12-08T06:33:52;2.50;99.90
20349;DHT22;10332;50.208;18.988;2022-12-08T06:36:23;2.50;99.90
20349;DHT22;10332;50.208;18.988;2022-12-08T06:38:54;2.50;99.90
20349;DHT22;10332;50.208;18.988;2022-12-08T06:41:22;2.40;99.90
20349;DHT22;10332;50.208;18.988;2022-12-08T06:43:49;2.40;99.90
20349;DHT22;10332;50.208;18.988;2022-12-08T06:46:19;2.50;99.90
20349;DHT22;10332;50.208;18.988;2022-12-08T06:48:46;2.50;99.90
20349;DHT22;10332;50.208;18.988;2022-12-08T06:51:19;2.60;99.90
20349;DHT22;10332;50.208;18.988;2022-12-08T06:53:49;2.70;99.90
20349;DHT22;10332;50.208;18.988;2022-12-08T06:56:16;2.70;99.90
20349;DHT22;10332;50.208;18.988;2022-12-08T06:58:46;2.80;99.90
20349;DHT22;10332;50.208;18.988;2022-12-08T07:01:19;2.90;99.90
20349;DHT22;10332;50.208;18.988;2022-12-08T07:03:46;2.90;99.90
20349;DHT22;10332;50.208;18.988;2022-12-08T07:06:17;2.90;99.90
20349;DHT22;10332;50.208;18.988;2022-12-08T07:08:47;3.00;99.90
20349;DHT22;10332;50.208;18.988;2022-12-08T07:11:14;3.00;99.90
20349;DHT22;10332;50.208;18.988;2022-12-08T07:13:48;3.10;99.90
20349;DHT22;10332;50.208;18.988;2022-12-08T07:16:16;3.20;99.10
20349;DHT22;10332;50.208;18.988;2022-12-08T07:18:44;3.30;98.50
20349;DHT22;10332;50.208;18.988;2022-12-08T07:21:13;3.40;97.50
20349;DHT22;10332;50.208;18.988;2022-12-08T07:23:41;3.50;96.20
20349;DHT22;10332;50.208;18.988;2022-12-08T07:26:12;3.50;95.50
20349;DHT22;10332;50.208;18.988;2022-12-08T07:28:40;3.60;94.80
20349;DHT22;10332;50.208;18.988;2022-12-08T07:31:19;3.60;94.60
20349;DHT22;10332;50.208;18.988;2022-12-08T07:33:48;3.60;94.90
20349;DHT22;10332;50.208;18.988;2022-12-08T07:36:18;3.70;94.40
20349;DHT22;10332;50.208;18.988;2022-12-08T07:38:45;4.00;93.00
20349;DHT22;10332;50.208;18.988;2022-12-08T07:41:19;4.20;90.90
20349;DHT22;10332;50.208;18.988;2022-12-08T07:43:50;4.20;90.30
20349;DHT22;10332;50.208;18.988;2022-12-08T07:46:22;4.40;88.80
20349;DHT22;10332;50.208;18.988;2022-12-08T07:48:54;4.40;87.60
20349;DHT22;10332;50.208;18.988;2022-12-08T07:51:23;4.40;87.10
20349;DHT22;10332;50.208;18.988;2022-12-08T07:53:51;4.40;86.40
20349;DHT22;10332;50.208;18.988;2022-12-08T07:56:21;4.40;87.50
20349;DHT22;10332;50.208;18.988;2022-12-08T07:58:49;4.30;87.80
20349;DHT22;10332;50.208;18.988;2022-12-08T08:01:28;4.20;88.30
20349;DHT22;10332;50.208;18.988;2022-12-08T08:03:58;4.30;88.40
20349;DHT22;10332;50.208;18.988;2022-12-08T08:06:28;4.30;87.50
20349;DHT22;10332;50.208;18.988;2022-12-08T08:08:56;4.30;88.10
20349;DHT22;10332;50.208;18.988;2022-12-08T08:11:24;4.30;86.70
20349;DHT22;10332;50.208;18.988;2022-12-08T08:13:51;4.40;86.30
20349;DHT22;10332;50.208;18.988;2022-12-08T08:16:19;4.40;85.40
20349;DHT22;10332;50.208;18.988;2022-12-08T08:18:49;4.40;85.10
20349;DHT22;10332;50.208;18.988;2022-12-08T08:21:18;4.40;85.90
20349;DHT22;10332;50.208;18.988;2022-12-08T08:24:06;4.40;84.60
20349;DHT22;10332;50.208;18.988;2022-12-08T08:26:35;4.50;85.60
20349;DHT22;10332;50.208;18.988;2022-12-08T08:29:03;4.50;85.30
20349;DHT22;10332;50.208;18.988;2022-12-08T08:31:31;4.60;87.20
20349;DHT22;10332;50.208;18.988;2022-12-08T08:33:58;4.70;86.50
20349;DHT22;10332;50.208;18.988;2022-12-08T08:36:31;4.90;84.10
20349;DHT22;10332;50.208;18.988;2022-12-08T08:38:58;5.00;80.20
20349;DHT22;10332;50.208;18.988;2022-12-08T08:41:26;5.10;80.40
20349;DHT22;10332;50.208;18.988;2022-12-08T08:43:54;5.20;79.20
20349;DHT22;10332;50.208;18.988;2022-12-08T08:46:21;5.30;78.00
20349;DHT22;10332;50.208;18.988;2022-12-08T08:48:49;5.50;74.90
20349;DHT22;10332;50.208;18.988;2022-12-08T08:51:16;6.20;75.30
20349;DHT22;10332;50.208;18.988;2022-12-08T08:53:44;6.70;65.00
20349;DHT22;10332;50.208;18.988;2022-12-08T08:56:13;7.90;61.50
20349;DHT22;10332;50.208;18.988;2022-12-08T08:58:42;8.90;55.90
20349;DHT22;10332;50.208;18.988;2022-12-08T09:01:17;10.20;46.60
20349;DHT22;10332;50.208;18.988;2022-12-08T09:03:47;11.50;40.40
20349;DHT22;10332;50.208;18.988;2022-12-08T09:06:15;12.80;20.80
20349;DHT22;10332;50.208;18.988;2022-12-08T09:08:44;12.90;6.10
20349;DHT22;10332;50.208;18.988;2022-12-08T09:11:12;12.20;2.30
20349;DHT22;10332;50.208;18.988;2022-12-08T09:13:40;11.40;6.70
20349;DHT22;10332;50.208;18.988;2022-12-08T09:16:09;10.80;10.80
20349;DHT22;10332;50.208;18.988;2022-12-08T09:18:38;10.10;16.20
20349;DHT22;10332;50.208;18.988;2022-12-08T09:21:07;9.60;22.50
20349;DHT22;10332;50.208;18.988;2022-12-08T09:23:39;9.60;24.50
20349;DHT22;10332;50.208;18.988;2022-12-08T09:26:06;9.50;25.80
20349;DHT22;10332;50.208;18.988;2022-12-08T09:28:34;9.20;26.60
20349;DHT22;10332;50.208;18.988;2022-12-08T09:31:02;8.70;30.30
20349;DHT22;10332;50.208;18.988;2022-12-08T09:33:30;8.10;36.90
20349;DHT22;10332;50.208;18.988;2022-12-08T09:36:01;7.60;42.50
20349;DHT22;10332;50.208;18.988;2022-12-08T09:38:29;7.30;46.80
20349;DHT22;10332;50.208;18.988;2022-12-08T09:40:58;7.20;48.40
20349;DHT22;10332;50.208;18.988;2022-12-08T09:43:53;7.40;48.70
20349;DHT22;10332;50.208;18.988;2022-12-08T09:46:31;7.70;46.90
20349;DHT22;10332;50.208;18.988;2022-12-08T09:49:01;7.60;47.30
20349;DHT22;10332;50.208;18.988;2022-12-08T09:51:37;7.50;47.00
20349;DHT22;10332;50.208;18.988;2022-12-08T09:54:30;7.60;46.40
20349;DHT22;10332;50.208;18.988;2022-12-08T09:57:05;7.90;44.90
20349;DHT22;10332;50.208;18.988;2022-12-08T09:59:39;8.30;41.90
20349;DHT22;10332;50.208;18.988;2022-12-08T10:02:23;9.10;38.40
20349;DHT22;10332;50.208;18.988;2022-12-08T10:04:54;9.60;30.80
20349;DHT22;10332;50.208;18.988;2022-12-08T10:08:06;9.30;26.20
20349;DHT22;10332;50.208;18.988;2022-12-08T10:10:38;8.70;28.50
20349;DHT22;10332;50.208;18.988;2022-12-08T10:16:24;7.50;39.80
20349;DHT22;10332;50.208;18.988;2022-12-08T10:19:21;7.10;43.90
20349;DHT22;10332;50.208;18.988;2022-12-08T10:21:52;6.80;46.30
20349;DHT22;10332;50.208;18.988;2022-12-08T10:24:42;6.70;49.60
20349;DHT22;10332;50.208;18.988;2022-12-08T10:27:20;6.60;51.10
20349;DHT22;10332;50.208;18.988;2022-12-08T10:29:48;6.50;50.80
20349;DHT22;10332;50.208;18.988;2022-12-08T10:32:18;6.40;54.00
20349;DHT22;10332;50.208;18.988;2022-12-08T10:35:09;6.30;54.10
20349;DHT22;10332;50.208;18.988;2022-12-08T10:37:38;6.30;54.80
20349;DHT22;10332;50.208;18.988;2022-12-08T10:40:15;6.30;54.40
20349;DHT22;10332;50.208;18.988;2022-12-08T10:42:49;6.30;54.80
20349;DHT22;10332;50.208;18.988;2022-12-08T10:45:38;6.20;57.10
20349;DHT22;10332;50.208;18.988;2022-12-08T10:48:25;6.10;58.30
20349;DHT22;10332;50.208;18.988;2022-12-08T10:50:59;6.00;57.80
20349;DHT22;10332;50.208;18.988;2022-12-08T10:53:28;5.90;56.90
20349;DHT22;10332;50.208;18.988;2022-12-08T10:58:33;5.70;57.80
20349;DHT22;10332;50.208;18.988;2022-12-08T11:01:24;5.70;59.00
20349;DHT22;10332;50.208;18.988;2022-12-08T11:03:54;5.60;60.00
20349;DHT22;10332;50.208;18.988;2022-12-08T11:06:36;5.60;61.50
20349;DHT22;10332;50.208;18.988;2022-12-08T11:11:48;5.50;63.60
20349;DHT22;10332;50.208;18.988;2022-12-08T11:14:28;5.60;63.30
20349;DHT22;10332;50.208;18.988;2022-12-08T11:19:53;5.40;64.30
20349;DHT22;10332;50.208;18.988;2022-12-08T11:22:41;5.40;64.70
20349;DHT22;10332;50.208;18.988;2022-12-08T11:25:23;5.40;64.90
20349;DHT22;10332;50.208;18.988;2022-12-08T11:27:58;5.40;65.80
20349;DHT22;10332;50.208;18.988;2022-12-08T11:30:30;5.30;67.10
20349;DHT22;10332;50.208;18.988;2022-12-08T11:33:24;5.30;68.10
20349;DHT22;10332;50.208;18.988;2022-12-08T11:36:05;5.20;69.30
20349;DHT22;10332;50.208;18.988;2022-12-08T11:38:43;5.10;70.00
20349;DHT22;10332;50.208;18.988;2022-12-08T11:41:19;5.10;72.50
20349;DHT22;10332;50.208;18.988;2022-12-08T11:44:01;5.20;72.50
20349;DHT22;10332;50.208;18.988;2022-12-08T11:46:47;5.10;74.30
20349;DHT22;10332;50.208;18.988;2022-12-08T11:49:19;5.20;75.50
20349;DHT22;10332;50.208;18.988;2022-12-08T11:57:00;5.10;80.00
20349;DHT22;10332;50.208;18.988;2022-12-08T11:59:41;5.00;82.00
20349;DHT22;10332;50.208;18.988;2022-12-08T12:09:03;4.80;85.80
20349;DHT22;10332;50.208;18.988;2022-12-08T12:24:02;4.60;91.30
20349;DHT22;10332;50.208;18.988;2022-12-08T12:26:47;4.50;92.10
20349;DHT22;10332;50.208;18.988;2022-12-08T12:29:23;4.40;93.00
20349;DHT22;10332;50.208;18.988;2022-12-08T12:31:59;4.40;94.50
20349;DHT22;10332;50.208;18.988;2022-12-08T12:34:35;4.30;95.40
20349;DHT22;10332;50.208;18.988;2022-12-08T12:37:14;4.20;96.30
20349;DHT22;10332;50.208;18.988;2022-12-08T12:39:57;4.20;97.10
20349;DHT22;10332;50.208;18.988;2022-12-08T12:42:37;4.20;97.40
20349;DHT22;10332;50.208;18.988;2022-12-08T12:58:38;4.10;99.50
20349;DHT22;10332;50.208;18.988;2022-12-08T13:04:24;4.10;99.90
20349;DHT22;10332;50.208;18.988;2022-12-08T13:06:48;4.10;99.90
20349;DHT22;10332;50.208;18.988;2022-12-08T13:12:08;4.10;99.90
20349;DHT22;10332;50.208;18.988;2022-12-08T13:14:46;4.10;99.80
20349;DHT22;10332;50.208;18.988;2022-12-08T13:17:24;4.20;99.90
20349;DHT22;10332;50.208;18.988;2022-12-08T13:19:58;4.20;99.90
20349;DHT22;10332;50.208;18.988;2022-12-08T13:25:44;4.20;99.90
20349;DHT22;10332;50.208;18.988;2022-12-08T13:28:20;4.20;99.90
20349;DHT22;10332;50.208;18.988;2022-12-08T13:30:58;4.30;99.90
20349;DHT22;10332;50.208;18.988;2022-12-08T13:33:28;4.30;99.90
20349;DHT22;10332;50.208;18.988;2022-12-08T13:39:00;4.30;99.90
20349;DHT22;10332;50.208;18.988;2022-12-08T13:41:42;4.30;99.90
20349;DHT22;10332;50.208;18.988;2022-12-08T13:44:22;4.30;99.90
20349;DHT22;10332;50.208;18.988;2022-12-08T13:47:23;4.20;99.90
20349;DHT22;10332;50.208;18.988;2022-12-08T13:53:04;4.10;99.90
20349;DHT22;10332;50.208;18.988;2022-12-08T13:56:00;4.10;99.90
20349;DHT22;10332;50.208;18.988;2022-12-08T13:58:48;4.10;99.90
20349;DHT22;10332;50.208;18.988;2022-12-08T14:01:18;4.10;99.90
20349;DHT22;10332;50.208;18.988;2022-12-08T14:03:56;4.10;99.90
20349;DHT22;10332;50.208;18.988;2022-12-08T14:06:52;4.10;99.90
20349;DHT22;10332;50.208;18.988;2022-12-08T14:09:25;4.10;99.90
20349;DHT22;10332;50.208;18.988;2022-12-08T14:14:41;4.10;99.90
20349;DHT22;10332;50.208;18.988;2022-12-08T14:17:29;4.10;99.90
20349;DHT22;10332;50.208;18.988;2022-12-08T14:19:58;4.10;99.90
20349;DHT22;10332;50.208;18.988;2022-12-08T14:22:39;4.10;99.90
20349;DHT22;10332;50.208;18.988;2022-12-08T14:25:12;4.10;99.90
20349;DHT22;10332;50.208;18.988;2022-12-08T14:27:42;4.20;99.90
20349;DHT22;10332;50.208;18.988;2022-12-08T14:35:26;4.20;99.90
20349;DHT22;10332;50.208;18.988;2022-12-08T14:38:10;4.30;99.90
20349;DHT22;10332;50.208;18.988;2022-12-08T14:40:45;4.30;99.90
20349;DHT22;10332;50.208;18.988;2022-12-08T14:43:19;4.30;99.90
20349;DHT22;10332;50.208;18.988;2022-12-08T14:45:56;4.30;99.90
20349;DHT22;10332;50.208;18.988;2022-12-08T14:53:50;4.30;99.90
20349;DHT22;10332;50.208;18.988;2022-12-08T14:56:47;4.30;99.90
20349;DHT22;10332;50.208;18.988;2022-12-08T14:59:30;4.30;99.90
20349;DHT22;10332;50.208;18.988;2022-12-08T15:05:44;4.20;99.90
20349;DHT22;10332;50.208;18.988;2022-12-08T15:07:55;4.10;99.90
20349;DHT22;10332;50.208;18.988;2022-12-08T15:10:30;4.10;99.90
20349;DHT22;10332;50.208;18.988;2022-12-08T15:15:53;4.10;99.90
20349;DHT22;10332;50.208;18.988;2022-12-08T15:18:38;4.10;99.90
20349;DHT22;10332;50.208;18.988;2022-12-08T15:21:08;4.00;99.90
20349;DHT22;10332;50.208;18.988;2022-12-08T15:23:42;4.10;99.90
20349;DHT22;10332;50.208;18.988;2022-12-08T15:26:24;4.10;99.90
20349;DHT22;10332;50.208;18.988;2022-12-08T15:28:54;4.10;99.90
20349;DHT22;10332;50.208;18.988;2022-12-08T15:31:22;4.00;99.90
20349;DHT22;10332;50.208;18.988;2022-12-08T15:33:50;4.00;99.90
20349;DHT22;10332;50.208;18.988;2022-12-08T15:36:18;4.10;99.90
20349;DHT22;10332;50.208;18.988;2022-12-08T15:38:45;4.10;99.90
20349;DHT22;10332;50.208;18.988;2022-12-08T15:41:12;4.00;99.90
20349;DHT22;10332;50.208;18.988;2022-12-08T15:43:41;4.00;99.90
20349;DHT22;10332;50.208;18.988;2022-12-08T15:46:09;4.10;99.90
20349;DHT22;10332;50.208;18.988;2022-12-08T15:48:36;4.10;99.90
20349;DHT22;10332;50.208;18.988;2022-12-08T15:51:04;4.20;99.90
20349;DHT22;10332;50.208;18.988;2022-12-08T15:53:31;4.10;99.90
20349;DHT22;10332;50.208;18.988;2022-12-08T15:56:04;4.10;99.90
20349;DHT22;10332;50.208;18.988;2022-12-08T15:58:53;4.10;99.90
20349;DHT22;10332;50.208;18.988;2022-12-08T16:01:24;4.10;99.90
20349;DHT22;10332;50.208;18.988;2022-12-08T16:03:52;4.10;99.90
20349;DHT22;10332;50.208;18.988;2022-12-08T16:06:41;4.10;99.90
20349;DHT22;10332;50.208;18.988;2022-12-08T16:09:40;4.00;99.90
20349;DHT22;10332;50.208;18.988;2022-12-08T16:12:21;4.10;99.90
20349;DHT22;10332;50.208;18.988;2022-12-08T16:15:29;4.00;99.90
20349;DHT22;10332;50.208;18.988;2022-12-08T16:18:25;4.00;99.90
20349;DHT22;10332;50.208;18.988;2022-12-08T16:20:54;4.10;99.90
20349;DHT22;10332;50.208;18.988;2022-12-08T16:23:43;4.00;99.90
20349;DHT22;10332;50.208;18.988;2022-12-08T16:26:17;4.00;99.90
20349;DHT22;10332;50.208;18.988;2022-12-08T16:29:07;4.00;99.90
20349;DHT22;10332;50.208;18.988;2022-12-08T16:31:35;4.00;99.90
20349;DHT22;10332;50.208;18.988;2022-12-08T16:34:03;3.90;99.90
20349;DHT22;10332;50.208;18.988;2022-12-08T16:36:30;4.00;99.90
20349;DHT22;10332;50.208;18.988;2022-12-08T16:38:58;3.90;99.90
20349;DHT22;10332;50.208;18.988;2022-12-08T16:41:25;3.90;99.90
20349;DHT22;10332;50.208;18.988;2022-12-08T16:44:11;3.90;99.90
20349;DHT22;10332;50.208;18.988;2022-12-08T16:46:38;3.90;99.90
20349;DHT22;10332;50.208;18.988;2022-12-08T16:49:07;3.90;99.90
20349;DHT22;10332;50.208;18.988;2022-12-08T16:51:35;3.90;99.90
20349;DHT22;10332;50.208;18.988;2022-12-08T16:54:03;4.00;99.90
20349;DHT22;10332;50.208;18.988;2022-12-08T16:56:30;4.00;99.90
20349;DHT22;10332;50.208;18.988;2022-12-08T16:59:00;4.00;99.90
20349;DHT22;10332;50.208;18.988;2022-12-08T17:01:28;4.10;99.90
20349;DHT22;10332;50.208;18.988;2022-12-08T17:03:57;4.10;99.90
20349;DHT22;10332;50.208;18.988;2022-12-08T17:06:45;4.20;99.90
20349;DHT22;10332;50.208;18.988;2022-12-08T17:09:13;4.10;99.90
20349;DHT22;10332;50.208;18.988;2022-12-08T17:11:40;4.10;99.90
20349;DHT22;10332;50.208;18.988;2022-12-08T17:14:11;4.10;99.90
20349;DHT22;10332;50.208;18.988;2022-12-08T17:16:39;4.10;99.90
20349;DHT22;10332;50.208;18.988;2022-12-08T17:19:07;3.90;99.90
20349;DHT22;10332;50.208;18.988;2022-12-08T17:21:35;3.90;99.90
20349;DHT22;10332;50.208;18.988;2022-12-08T17:24:03;3.90;99.90
20349;DHT22;10332;50.208;18.988;2022-12-08T17:26:30;3.90;99.90
20349;DHT22;10332;50.208;18.988;2022-12-08T17:29:00;3.80;99.90
20349;DHT22;10332;50.208;18.988;2022-12-08T17:31:31;3.80;99.90
20349;DHT22;10332;50.208;18.988;2022-12-08T17:34:00;3.80;99.90
20349;DHT22;10332;50.208;18.988;2022-12-08T17:36:29;3.80;99.90
20349;DHT22;10332;50.208;18.988;2022-12-08T17:38:58;3.70;99.90
20349;DHT22;10332;50.208;18.988;2022-12-08T17:41:27;3.70;99.90
20349;DHT22;10332;50.208;18.988;2022-12-08T17:43:56;3.70;99.90
20349;DHT22;10332;50.208;18.988;2022-12-08T17:46:23;3.80;99.90
20349;DHT22;10332;50.208;18.988;2022-12-08T17:48:51;3.80;99.90
20349;DHT22;10332;50.208;18.988;2022-12-08T17:51:19;3.80;99.90
20349;DHT22;10332;50.208;18.988;2022-12-08T17:53:47;3.70;99.90
20349;DHT22;10332;50.208;18.988;2022-12-08T17:56:19;3.80;99.90
20349;DHT22;10332;50.208;18.988;2022-12-08T17:58:48;3.70;99.90
20349;DHT22;10332;50.208;18.988;2022-12-08T18:01:21;3.80;99.90
20349;DHT22;10332;50.208;18.988;2022-12-08T18:03:50;3.80;99.90
20349;DHT22;10332;50.208;18.988;2022-12-08T18:06:17;3.80;99.90
20349;DHT22;10332;50.208;18.988;2022-12-08T18:08:45;3.80;99.90
20349;DHT22;10332;50.208;18.988;2022-12-08T18:11:16;3.80;99.90